createdAt,value
2023-04-06T00:01:24.001Z,6.16
2023-04-06T00:03:51.261Z,6.21
2023-04-06T00:06:17.663Z,6.19
2023-04-06T00:08:45.503Z,6.02
2023-04-06T00:11:11.879Z,6.02
2023-04-06T00:13:38.336Z,5.86
2023-04-06T00:16:06.276Z,5.71
2023-04-06T00:18:32.865Z,5.63
2023-04-06T00:20:59.227Z,5.39
2023-04-06T00:23:25.703Z,5.48
2023-04-06T00:25:52.056Z,5.63
2023-04-06T00:28:18.485Z,5.59
2023-04-06T00:30:44.904Z,5.59
2023-04-06T00:33:11.537Z,5.60
2023-04-06T00:35:38.074Z,5.71
2023-04-06T00:38:04.542Z,5.70
2023-04-06T00:40:31.988Z,5.57
2023-04-06T00:42:58.367Z,5.30
2023-04-06T00:45:24.744Z,5.43
2023-04-06T00:47:51.558Z,5.47
2023-04-06T00:50:18.254Z,5.44
2023-04-06T00:52:44.625Z,5.46
2023-04-06T00:55:11.139Z,5.43
2023-04-06T00:57:41.535Z,5.51
2023-04-06T01:00:08.101Z,5.61
2023-04-06T01:02:35.393Z,5.49
2023-04-06T01:05:01.840Z,5.54
2023-04-06T01:07:36.154Z,5.53
2023-04-06T01:10:10.363Z,5.27
2023-04-06T01:12:39.636Z,5.42
2023-04-06T01:15:12.018Z,5.34
2023-04-06T01:17:41.577Z,5.45
2023-04-06T01:20:12.770Z,5.36
2023-04-06T01:22:39.182Z,5.51
2023-04-06T01:25:05.964Z,5.47
2023-04-06T01:28:04.710Z,5.50
2023-04-06T01:30:47.605Z,5.40
2023-04-06T01:33:26.006Z,5.46
2023-04-06T01:36:01.227Z,5.51
2023-04-06T01:38:27.755Z,5.35
2023-04-06T01:40:54.554Z,5.24
2023-04-06T01:43:23.773Z,5.39
2023-04-06T01:46:00.282Z,5.46
2023-04-06T01:48:32.171Z,5.45
2023-04-06T01:51:02.747Z,5.48
2023-04-06T01:53:32.643Z,5.28
2023-04-06T01:56:04.354Z,5.22
2023-04-06T01:58:34.531Z,5.33
2023-04-06T02:01:01.333Z,5.28
2023-04-06T02:03:32.524Z,5.21
2023-04-06T02:06:05.965Z,5.42
2023-04-06T02:08:37.199Z,5.23
2023-04-06T02:11:03.599Z,5.25
2023-04-06T02:13:34.635Z,5.31
2023-04-06T02:16:02.458Z,5.35
2023-04-06T02:18:30.671Z,5.32
2023-04-06T02:20:57.361Z,5.38
2023-04-06T02:23:23.734Z,5.46
2023-04-06T02:25:50.314Z,5.43
2023-04-06T02:28:16.681Z,5.22
2023-04-06T02:30:43.062Z,5.35
2023-04-06T02:33:09.781Z,5.29
2023-04-06T02:35:42.415Z,5.12
2023-04-06T02:38:08.789Z,5.08
2023-04-06T02:40:35.270Z,4.93
2023-04-06T02:43:11.681Z,5.08
2023-04-06T02:45:38.245Z,4.73
2023-04-06T02:48:05.111Z,4.98
2023-04-06T02:50:32.611Z,4.84
2023-04-06T02:53:02.759Z,4.90
2023-04-06T02:55:29.278Z,4.75
2023-04-06T02:57:55.713Z,4.76
2023-04-06T03:00:27.278Z,4.52
2023-04-06T03:02:53.820Z,4.65
2023-04-06T03:05:20.579Z,4.64
2023-04-06T03:07:47.606Z,4.86
2023-04-06T03:10:21.797Z,4.84
2023-04-06T03:12:49.143Z,4.88
2023-04-06T03:15:34.399Z,4.60
2023-04-06T03:18:11.699Z,4.77
2023-04-06T03:20:42.915Z,4.73
2023-04-06T03:23:10.255Z,4.46
2023-04-06T03:25:40.808Z,3.60
2023-04-06T03:28:09.798Z,3.84
2023-04-06T03:30:43.588Z,4.36
2023-04-06T03:33:11.647Z,4.40
2023-04-06T03:35:47.699Z,3.31
2023-04-06T03:38:14.440Z,3.91
2023-04-06T03:40:40.975Z,3.90
2023-04-06T03:43:08.506Z,3.94
2023-04-06T03:45:36.637Z,3.97
2023-04-06T03:48:03.713Z,4.05
2023-04-06T03:50:32.895Z,3.77
2023-04-06T03:52:59.367Z,4.11
2023-04-06T03:55:25.821Z,4.06
2023-04-06T03:57:52.219Z,4.19
2023-04-06T04:00:18.698Z,4.32
2023-04-06T04:02:45.172Z,4.21
2023-04-06T04:05:11.604Z,4.29
2023-04-06T04:07:38.012Z,4.11
2023-04-06T04:10:05.661Z,4.34
2023-04-06T04:12:32.417Z,4.32
2023-04-06T04:14:59.137Z,4.19
2023-04-06T04:17:26.002Z,4.40
2023-04-06T04:19:52.438Z,4.30
2023-04-06T04:22:18.827Z,4.11
2023-04-06T04:24:45.421Z,4.10
2023-04-06T04:27:11.867Z,4.07
2023-04-06T04:29:39.956Z,4.29
2023-04-06T04:32:09.176Z,4.27
2023-04-06T04:34:36.805Z,3.83
2023-04-06T04:37:05.952Z,3.52
2023-04-06T04:39:43.896Z,3.55
2023-04-06T04:42:11.358Z,3.74
2023-04-06T04:44:43.217Z,3.98
2023-04-06T04:47:09.823Z,4.21
2023-04-06T04:49:43.848Z,4.12
2023-04-06T04:52:12.379Z,4.11
2023-04-06T04:54:50.496Z,4.09
2023-04-06T04:57:23.896Z,3.79
2023-04-06T04:59:51.801Z,4.07
2023-04-06T05:02:19.251Z,4.21
2023-04-06T05:04:54.286Z,4.22
2023-04-06T05:07:24.341Z,4.32
2023-04-06T05:09:52.940Z,4.34
2023-04-06T05:12:20.887Z,4.07
2023-04-06T05:14:55.914Z,4.17
2023-04-06T05:17:23.272Z,4.25
2023-04-06T05:19:50.308Z,4.22
2023-04-06T05:22:22.537Z,4.60
2023-04-06T05:24:57.590Z,4.47
2023-04-06T05:27:23.991Z,4.40
2023-04-06T05:29:51.092Z,4.70
2023-04-06T05:32:22.816Z,4.62
2023-04-06T05:34:53.532Z,4.69
2023-04-06T05:37:19.943Z,4.33
2023-04-06T05:39:46.665Z,4.63
2023-04-06T05:42:13.400Z,4.66
2023-04-06T05:44:50.109Z,4.55
2023-04-06T05:47:17.342Z,4.37
2023-04-06T05:49:47.229Z,4.78
2023-04-06T05:52:21.410Z,4.81
2023-04-06T05:54:49.891Z,4.76
2023-04-06T05:57:17.640Z,4.94
2023-04-06T05:59:44.373Z,5.12
2023-04-06T06:02:12.782Z,5.08
2023-04-06T06:04:43.270Z,5.23
2023-04-06T06:07:09.841Z,5.19
2023-04-06T06:09:44.299Z,5.32
2023-04-06T06:12:24.293Z,5.53
2023-04-06T06:14:50.945Z,5.63
2023-04-06T06:17:18.349Z,5.69
2023-04-06T06:19:47.065Z,5.72
2023-04-06T06:22:13.491Z,5.45
2023-04-06T06:24:42.886Z,5.24
2023-04-06T06:27:10.530Z,5.56
2023-04-06T06:29:38.260Z,5.44
2023-04-06T06:32:04.810Z,5.60
2023-04-06T06:34:31.919Z,5.62
2023-04-06T06:37:00.711Z,5.65
2023-04-06T06:39:27.240Z,5.27
2023-04-06T06:41:55.384Z,5.60
2023-04-06T06:44:39.528Z,5.35
2023-04-06T06:47:06.025Z,5.21
2023-04-06T06:49:32.456Z,5.02
2023-04-06T06:51:59.073Z,5.39
2023-04-06T06:54:25.659Z,4.91
2023-04-06T06:56:52.100Z,5.20
2023-04-06T06:59:18.699Z,5.82
2023-04-06T07:01:45.249Z,5.20
2023-04-06T07:04:11.840Z,5.75
2023-04-06T07:06:38.375Z,6.52
2023-04-06T07:09:06.681Z,6.25
2023-04-06T07:11:33.124Z,6.32
2023-04-06T07:13:59.520Z,6.43
2023-04-06T07:16:26.362Z,6.64
2023-04-06T07:18:54.240Z,6.90
2023-04-06T07:21:20.647Z,6.65
2023-04-06T07:23:49.013Z,6.79
2023-04-06T07:26:16.461Z,7.29
2023-04-06T07:28:42.856Z,7.70
2023-04-06T07:31:10.177Z,7.18
2023-04-06T07:33:36.669Z,7.95
2023-04-06T07:36:03.127Z,7.68
2023-04-06T07:38:29.792Z,8.47
2023-04-06T07:40:56.506Z,7.86
2023-04-06T07:43:23.274Z,6.84
2023-04-06T07:45:50.077Z,7.84
2023-04-06T07:48:17.594Z,7.98
2023-04-06T07:50:44.606Z,8.27
2023-04-06T07:53:11.390Z,7.97
2023-04-06T07:55:38.618Z,8.10
2023-04-06T07:58:05.050Z,8.28
2023-04-06T08:00:31.414Z,7.92
2023-04-06T08:02:57.992Z,8.47
2023-04-06T08:05:24.441Z,8.46
2023-04-06T08:07:50.920Z,8.13
2023-04-06T08:10:17.845Z,7.83
2023-04-06T08:12:44.402Z,7.88
2023-04-06T08:15:11.110Z,8.76
2023-04-06T08:17:37.557Z,8.85
2023-04-06T08:20:04.716Z,10.04
2023-04-06T08:22:31.261Z,9.58
2023-04-06T08:24:57.710Z,9.86
2023-04-06T08:27:24.157Z,9.73
2023-04-06T08:29:50.777Z,9.55
2023-04-06T08:32:17.341Z,9.06
2023-04-06T08:34:45.486Z,9.09
2023-04-06T08:37:11.869Z,9.47
2023-04-06T08:39:38.270Z,9.73
2023-04-06T08:42:04.879Z,9.52
2023-04-06T08:44:32.923Z,8.97
2023-04-06T08:47:00.324Z,10.25
2023-04-06T08:49:27.015Z,9.71
2023-04-06T08:51:54.000Z,9.44
2023-04-06T08:54:20.391Z,9.42
2023-04-06T08:56:46.761Z,9.93
2023-04-06T08:59:13.169Z,10.34
2023-04-06T09:01:41.098Z,10.74
2023-04-06T09:04:10.492Z,10.62
2023-04-06T09:06:37.929Z,11.06
2023-04-06T09:09:04.501Z,10.82
2023-04-06T09:11:41.731Z,11.69
2023-04-06T09:14:08.460Z,10.45
2023-04-06T09:16:40.269Z,10.02
2023-04-06T09:19:06.832Z,11.25
2023-04-06T09:21:33.441Z,11.73
2023-04-06T09:24:03.202Z,12.66
2023-04-06T09:26:29.874Z,12.93
2023-04-06T09:28:57.153Z,12.21
2023-04-06T09:31:24.603Z,12.63
2023-04-06T09:33:51.507Z,12.34
2023-04-06T09:36:17.885Z,11.83
2023-04-06T09:38:55.248Z,11.06
2023-04-06T09:41:26.493Z,10.33
2023-04-06T09:43:53.534Z,10.09
2023-04-06T09:46:21.125Z,10.53
2023-04-06T09:48:47.563Z,11.31
2023-04-06T09:51:14.567Z,11.80
2023-04-06T09:53:43.383Z,11.76
2023-04-06T09:56:13.319Z,12.03
2023-04-06T09:58:40.368Z,12.73
2023-04-06T10:01:08.649Z,12.24
2023-04-06T10:03:41.796Z,11.61
2023-04-06T10:06:10.951Z,11.10
2023-04-06T10:08:37.355Z,11.75
2023-04-06T10:11:03.746Z,11.99
2023-04-06T10:13:30.501Z,12.04
2023-04-06T10:15:57.151Z,11.91
2023-04-06T10:18:23.832Z,12.47
2023-04-06T10:20:53.076Z,12.27
2023-04-06T10:23:21.030Z,12.04
2023-04-06T10:25:54.495Z,12.96
2023-04-06T10:28:20.952Z,13.25
2023-04-06T10:30:47.696Z,13.49
2023-04-06T10:33:14.685Z,13.78
2023-04-06T10:35:41.163Z,14.06
2023-04-06T10:38:08.581Z,13.42
2023-04-06T10:40:39.106Z,11.87
2023-04-06T10:43:12.632Z,12.42
2023-04-06T10:45:39.156Z,12.78
2023-04-06T10:48:15.968Z,12.58
2023-04-06T10:50:43.067Z,11.04
2023-04-06T10:53:09.462Z,11.96
2023-04-06T10:55:35.881Z,12.72
2023-04-06T10:58:02.290Z,11.46
2023-04-06T11:00:36.278Z,11.68
2023-04-06T11:03:13.710Z,13.47
2023-04-06T11:05:44.995Z,13.92
2023-04-06T11:08:32.290Z,14.77
2023-04-06T11:11:11.626Z,14.35
2023-04-06T11:13:41.853Z,14.68
2023-04-06T11:16:08.387Z,14.53
2023-04-06T11:18:34.931Z,14.58
2023-04-06T11:27:35.193Z,17.13
2023-04-06T11:30:02.061Z,17.46
2023-04-06T11:32:28.601Z,17.05
2023-04-06T11:34:55.091Z,17.20
2023-04-06T11:37:21.523Z,15.38
2023-04-06T11:39:50.375Z,13.35
2023-04-06T11:42:23.669Z,14.75
2023-04-06T11:44:51.097Z,14.62
2023-04-06T11:47:17.478Z,15.59
2023-04-06T11:49:45.946Z,15.89
2023-04-06T11:52:19.216Z,15.30
2023-04-06T11:54:46.047Z,15.99
2023-04-06T11:57:12.423Z,15.33
2023-04-06T11:59:38.915Z,15.72
2023-04-06T12:02:05.762Z,16.33
2023-04-06T12:04:32.234Z,16.77
2023-04-06T12:06:58.684Z,16.91
2023-04-06T12:09:25.196Z,17.13
2023-04-06T12:11:51.700Z,16.57
2023-04-06T12:14:18.126Z,15.78
2023-04-06T12:16:44.997Z,16.04
2023-04-06T12:19:11.424Z,16.54
2023-04-06T12:21:41.439Z,16.56
2023-04-06T12:24:07.820Z,16.16
2023-04-06T12:26:34.260Z,15.94
2023-04-06T12:29:07.840Z,16.11
2023-04-06T12:31:35.918Z,14.89
2023-04-06T12:34:04.083Z,15.08
2023-04-06T12:36:30.689Z,14.68
2023-04-06T12:38:57.084Z,14.96
2023-04-06T12:41:23.739Z,14.94
2023-04-06T12:43:51.114Z,14.69
2023-04-06T12:46:18.012Z,15.53
2023-04-06T12:48:44.537Z,15.14
2023-04-06T12:51:11.069Z,15.39
2023-04-06T12:53:37.460Z,14.91
2023-04-06T12:56:06.709Z,15.66
2023-04-06T12:58:34.430Z,15.03
2023-04-06T13:01:04.075Z,14.51
2023-04-06T13:03:31.566Z,14.67
2023-04-06T13:05:57.917Z,14.60
2023-04-06T13:08:24.265Z,14.33
2023-04-06T13:10:51.777Z,14.51
2023-04-06T13:13:18.506Z,14.38
2023-04-06T13:15:45.937Z,15.06
2023-04-06T13:18:12.497Z,14.38
2023-04-06T13:20:38.891Z,14.54
2023-04-06T13:23:05.494Z,14.74
2023-04-06T13:25:33.592Z,14.08
2023-04-06T13:28:00.063Z,14.51
2023-04-06T13:30:27.207Z,14.05
2023-04-06T13:32:54.367Z,14.35
2023-04-06T13:35:21.373Z,14.16
2023-04-06T13:37:47.851Z,13.58
2023-04-06T13:40:14.507Z,14.50
2023-04-06T13:42:41.781Z,15.13
2023-04-06T13:45:08.941Z,15.18
2023-04-06T13:47:35.880Z,15.61
2023-04-06T13:50:02.477Z,15.08
2023-04-06T13:52:29.050Z,15.68
2023-04-06T13:54:55.511Z,15.83
2023-04-06T13:57:21.965Z,16.15
2023-04-06T13:59:50.551Z,15.98
2023-04-06T14:02:17.356Z,16.55
2023-04-06T14:04:43.911Z,16.41
2023-04-06T14:07:10.556Z,16.64
2023-04-06T14:09:37.083Z,16.74
2023-04-06T14:12:03.495Z,16.46
2023-04-06T14:14:30.253Z,16.36
2023-04-06T14:16:57.047Z,15.86
2023-04-06T14:19:23.492Z,15.79
2023-04-06T14:21:50.463Z,15.94
2023-04-06T14:24:17.239Z,15.86
2023-04-06T14:26:43.763Z,16.28
2023-04-06T14:29:10.672Z,15.81
2023-04-06T14:31:37.106Z,15.41
2023-04-06T14:34:04.062Z,15.08
2023-04-06T14:36:37.483Z,15.48
2023-04-06T14:39:05.711Z,14.38
2023-04-06T14:41:33.330Z,15.67
2023-04-06T14:43:59.733Z,16.12
2023-04-06T14:46:27.712Z,16.50
2023-04-06T14:48:57.646Z,15.74
2023-04-06T14:51:30.308Z,16.57
2023-04-06T14:53:56.845Z,16.19
2023-04-06T14:56:23.900Z,16.35
2023-04-06T14:58:51.794Z,16.45
2023-04-06T15:01:19.290Z,16.54
2023-04-06T15:03:46.240Z,16.54
2023-04-06T15:06:15.805Z,16.30
2023-04-06T15:08:42.854Z,15.79
2023-04-06T15:11:09.446Z,15.13
2023-04-06T15:13:35.824Z,15.75
2023-04-06T15:16:02.277Z,16.04
2023-04-06T15:18:28.809Z,16.09
2023-04-06T15:20:55.429Z,16.02
2023-04-06T15:23:21.807Z,16.30
2023-04-06T15:25:48.193Z,16.24
2023-04-06T15:28:14.650Z,16.17
2023-04-06T15:30:41.143Z,15.20
2023-04-06T15:33:07.870Z,15.08
2023-04-06T15:35:43.616Z,15.62
2023-04-06T15:38:10.629Z,15.06
2023-04-06T15:40:44.282Z,15.65
2023-04-06T15:43:10.688Z,15.60
2023-04-06T15:45:37.581Z,15.50
2023-04-06T15:48:05.354Z,15.28
2023-04-06T15:50:33.227Z,15.26
2023-04-06T15:52:59.615Z,14.60
2023-04-06T15:55:25.976Z,15.70
2023-04-06T15:57:52.387Z,15.83
2023-04-06T16:00:18.935Z,15.61
2023-04-06T16:02:45.555Z,14.69
2023-04-06T16:05:12.070Z,15.51
2023-04-06T16:07:38.453Z,15.70
2023-04-06T16:10:06.152Z,16.15
2023-04-06T16:12:35.646Z,16.28
2023-04-06T16:15:02.086Z,16.15
2023-04-06T16:17:28.536Z,16.12
2023-04-06T16:19:55.034Z,15.65
2023-04-06T16:22:21.639Z,16.19
2023-04-06T16:24:48.020Z,15.56
2023-04-06T16:27:14.388Z,14.83
2023-04-06T16:29:40.778Z,15.08
2023-04-06T16:32:07.578Z,15.07
2023-04-06T16:34:34.398Z,14.70
2023-04-06T16:37:01.666Z,14.49
2023-04-06T16:39:28.433Z,14.18
2023-04-06T16:41:54.803Z,14.38
2023-04-06T16:44:21.601Z,14.54
2023-04-06T16:46:48.178Z,14.75
2023-04-06T16:49:14.564Z,14.74
2023-04-06T16:51:41.419Z,14.55
2023-04-06T16:54:08.774Z,15.32
2023-04-06T16:56:35.181Z,15.09
2023-04-06T16:59:01.558Z,14.99
2023-04-06T17:01:28.688Z,14.96
2023-04-06T17:03:56.188Z,14.79
2023-04-06T17:06:22.703Z,15.03
2023-04-06T17:08:49.342Z,15.08
2023-04-06T17:11:18.706Z,14.56
2023-04-06T17:13:48.530Z,14.52
2023-04-06T17:16:15.086Z,14.03
2023-04-06T17:18:41.589Z,14.02
2023-04-06T17:21:09.057Z,13.69
2023-04-06T17:23:35.690Z,13.53
2023-04-06T17:26:05.739Z,13.30
2023-04-06T17:28:33.948Z,13.02
2023-04-06T17:31:00.371Z,13.09
2023-04-06T17:33:27.398Z,13.13
2023-04-06T17:35:54.020Z,13.40
2023-04-06T17:38:21.071Z,13.39
2023-04-06T17:40:47.465Z,13.16
2023-04-06T17:43:13.882Z,12.87
2023-04-06T17:45:40.718Z,13.10
2023-04-06T17:48:07.486Z,12.69
2023-04-06T17:50:34.616Z,12.78
2023-04-06T17:53:01.365Z,12.56
2023-04-06T17:55:27.824Z,12.91
2023-04-06T17:57:54.245Z,12.50
2023-04-06T18:00:24.217Z,12.43
2023-04-06T18:02:54.335Z,12.47
2023-04-06T18:05:21.240Z,11.77
2023-04-06T18:07:48.102Z,11.92
2023-04-06T18:10:14.485Z,12.20
2023-04-06T18:12:40.943Z,12.12
2023-04-06T18:15:07.437Z,12.16
2023-04-06T18:17:34.217Z,12.12
2023-04-06T18:20:00.762Z,12.55
2023-04-06T18:22:27.598Z,12.26
2023-04-06T18:24:53.961Z,12.11
2023-04-06T18:27:21.533Z,12.47
2023-04-06T18:29:48.008Z,12.90
2023-04-06T18:32:14.955Z,12.79
2023-04-06T18:34:41.398Z,12.95
2023-04-06T18:37:07.893Z,12.49
2023-04-06T18:39:34.317Z,12.64
2023-04-06T18:42:00.918Z,12.84
2023-04-06T18:44:27.409Z,12.06
2023-04-06T18:46:55.485Z,12.65
2023-04-06T18:49:22.399Z,13.21
2023-04-06T18:51:48.801Z,12.69
2023-04-06T18:54:15.528Z,12.89
2023-04-06T18:56:41.986Z,12.96
2023-04-06T18:59:09.120Z,12.90
2023-04-06T19:01:35.637Z,12.60
2023-04-06T19:04:02.632Z,12.90
2023-04-06T19:06:29.210Z,12.42
2023-04-06T19:08:56.235Z,12.80
2023-04-06T19:11:24.981Z,12.08
2023-04-06T19:13:52.853Z,13.21
2023-04-06T19:16:19.323Z,13.20
2023-04-06T19:18:45.856Z,13.16
2023-04-06T19:21:18.701Z,12.87
2023-04-06T19:23:45.422Z,13.30
2023-04-06T19:26:12.357Z,13.36
2023-04-06T19:28:38.936Z,13.31
2023-04-06T19:31:08.788Z,13.10
2023-04-06T19:33:35.978Z,12.94
2023-04-06T19:36:02.499Z,12.71
2023-04-06T19:38:29.095Z,12.15
2023-04-06T19:40:56.559Z,12.36
2023-04-06T19:43:23.052Z,12.14
2023-04-06T19:45:49.595Z,11.77
2023-04-06T19:48:16.570Z,11.36
2023-04-06T19:50:43.006Z,11.84
2023-04-06T19:53:09.457Z,11.63
2023-04-06T19:55:36.964Z,11.62
2023-04-06T19:58:03.827Z,11.32
2023-04-06T20:00:30.271Z,11.52
2023-04-06T20:02:56.942Z,10.91
2023-04-06T20:05:23.402Z,11.40
2023-04-06T20:07:50.097Z,11.79
2023-04-06T20:10:16.956Z,12.98
2023-04-06T20:12:43.788Z,12.65
2023-04-06T20:15:10.809Z,13.15
2023-04-06T20:17:37.328Z,13.38
2023-04-06T20:20:04.532Z,12.86
2023-04-06T20:22:31.162Z,12.61
2023-04-06T20:24:57.553Z,11.94
2023-04-06T20:27:23.956Z,11.92
2023-04-06T20:29:50.393Z,11.39
2023-04-06T20:32:20.653Z,11.10
2023-04-06T20:34:47.798Z,11.22
2023-04-06T20:37:14.369Z,11.33
2023-04-06T20:39:41.027Z,11.30
2023-04-06T20:42:08.468Z,11.41
2023-04-06T20:44:35.845Z,11.27
2023-04-06T20:47:03.625Z,11.78
2023-04-06T20:49:30.059Z,11.44
2023-04-06T20:51:56.502Z,11.49
2023-04-06T20:54:23.001Z,12.15
2023-04-06T20:56:49.471Z,11.78
2023-04-06T20:59:15.931Z,11.93
2023-04-06T21:01:42.984Z,11.44
2023-04-06T21:04:09.636Z,11.02
2023-04-06T21:06:36.215Z,11.00
2023-04-06T21:09:02.704Z,11.13
2023-04-06T21:11:29.635Z,11.04
2023-04-06T21:13:56.424Z,10.83
2023-04-06T21:16:23.123Z,10.96
2023-04-06T21:18:49.593Z,10.46
2023-04-06T21:21:15.978Z,10.89
2023-04-06T21:23:42.377Z,11.01
2023-04-06T21:26:08.816Z,11.19
2023-04-06T21:28:35.394Z,11.00
2023-04-06T21:31:01.783Z,10.89
2023-04-06T21:33:28.291Z,10.95
2023-04-06T21:35:54.675Z,11.48
2023-04-06T21:38:21.184Z,11.29
2023-04-06T21:40:53.869Z,11.38
2023-04-06T21:43:20.256Z,11.29
2023-04-06T21:45:50.883Z,11.09
2023-04-06T21:48:17.457Z,10.32
2023-04-06T21:50:43.958Z,9.83
2023-04-06T21:53:10.580Z,9.88
2023-04-06T21:55:41.843Z,9.55
2023-04-06T21:58:09.065Z,9.54
2023-04-06T22:00:35.553Z,9.66
2023-04-06T22:03:02.181Z,10.22
2023-04-06T22:05:28.736Z,10.73
2023-04-06T22:07:57.093Z,10.68
2023-04-06T22:10:23.715Z,10.19
2023-04-06T22:12:50.668Z,10.01
2023-04-06T22:15:17.386Z,9.69
2023-04-06T22:17:43.801Z,9.75
2023-04-06T22:20:10.455Z,10.00
2023-04-06T22:22:36.866Z,10.17
2023-04-06T22:25:03.528Z,10.22
2023-04-06T22:27:29.899Z,10.20
2023-04-06T22:29:56.527Z,10.28
2023-04-06T22:32:23.041Z,10.50
2023-04-06T22:34:49.560Z,10.54
2023-04-06T22:37:15.966Z,10.63
2023-04-06T22:39:42.432Z,10.40
2023-04-06T22:42:09.067Z,10.08
2023-04-06T22:44:35.499Z,10.18
2023-04-06T22:47:02.219Z,10.17
2023-04-06T22:49:28.645Z,10.23
2023-04-06T22:51:55.153Z,10.27
2023-04-06T22:54:21.788Z,10.16
2023-04-06T22:56:48.368Z,10.17
2023-04-06T22:59:14.756Z,9.87
2023-04-06T23:01:41.449Z,10.47
2023-04-06T23:04:08.047Z,10.52
2023-04-06T23:06:34.588Z,10.60
2023-04-06T23:09:01.246Z,10.25
2023-04-06T23:11:27.643Z,10.45
2023-04-06T23:13:54.029Z,10.28
2023-04-06T23:16:20.733Z,10.48
2023-04-06T23:18:47.155Z,10.23
2023-04-06T23:21:13.513Z,10.22
2023-04-06T23:23:39.963Z,10.06
2023-04-06T23:26:07.158Z,9.93
2023-04-06T23:28:33.555Z,9.88
2023-04-06T23:30:59.926Z,9.85
2023-04-06T23:33:26.985Z,9.88
2023-04-06T23:35:53.345Z,10.19
2023-04-06T23:38:19.733Z,10.46
2023-04-06T23:40:46.457Z,10.51
2023-04-06T23:43:12.900Z,10.57
2023-04-06T23:45:39.891Z,10.38
2023-04-06T23:48:06.559Z,10.51
2023-04-06T23:50:34.687Z,10.54
2023-04-06T23:53:01.862Z,10.41
2023-04-06T23:55:28.228Z,10.47
2023-04-06T23:57:55.554Z,10.52
